createdAt,value
2023-03-28T00:01:23.000Z,97.52
2023-03-28T00:05:26.093Z,97.24
2023-03-28T00:09:29.806Z,97.14
2023-03-28T00:13:33.945Z,96.59
2023-03-28T00:17:37.753Z,96.52
2023-03-28T00:21:46.997Z,96.92
2023-03-28T00:25:50.263Z,97.09
2023-03-28T00:29:53.337Z,97.46
2023-03-28T00:33:57.594Z,97.93
2023-03-28T00:38:00.664Z,97.90
2023-03-28T00:42:04.359Z,97.87
2023-03-28T00:46:14.259Z,97.85
2023-03-28T00:50:31.182Z,97.61
2023-03-28T00:54:40.608Z,97.48
2023-03-28T00:58:44.949Z,99.13
2023-03-28T01:02:52.439Z,99.95
2023-03-28T01:06:59.009Z,100.00
2023-03-28T01:11:03.438Z,100.00
2023-03-28T01:15:07.557Z,100.00
2023-03-28T01:19:30.670Z,100.00
2023-03-28T01:24:11.674Z,100.00
2023-03-28T01:28:53.508Z,100.00
2023-03-28T01:33:16.842Z,100.00
2023-03-28T01:37:35.120Z,100.00
2023-03-28T01:42:03.833Z,100.00
2023-03-28T01:46:26.256Z,99.62
2023-03-28T01:50:51.112Z,99.47
2023-03-28T01:55:30.444Z,99.47
2023-03-28T01:59:45.831Z,99.00
2023-03-28T02:03:54.590Z,99.50
2023-03-28T02:08:00.343Z,98.91
2023-03-28T02:12:10.477Z,98.69
2023-03-28T02:16:16.947Z,98.31
2023-03-28T02:20:22.822Z,97.93
2023-03-28T02:24:26.146Z,97.81
2023-03-28T02:28:31.919Z,97.70
2023-03-28T02:32:36.119Z,97.67
2023-03-28T02:36:57.891Z,96.87
2023-03-28T02:41:00.903Z,96.30
2023-03-28T02:45:29.146Z,96.41
2023-03-28T02:49:50.722Z,96.01
2023-03-28T02:54:19.004Z,95.70
2023-03-28T02:58:29.618Z,94.60
2023-03-28T03:02:33.668Z,94.44
2023-03-28T03:06:37.839Z,93.34
2023-03-28T03:10:41.229Z,94.09
2023-03-28T03:14:44.988Z,94.17
2023-03-28T03:18:48.283Z,94.01
2023-03-28T03:22:51.676Z,93.93
2023-03-28T03:26:54.883Z,92.87
2023-03-28T03:30:58.321Z,92.23
2023-03-28T03:35:02.877Z,90.79
2023-03-28T03:39:06.713Z,89.25
2023-03-28T03:43:10.008Z,89.60
2023-03-28T03:47:13.732Z,87.73
2023-03-28T03:51:17.145Z,84.29
2023-03-28T03:55:20.993Z,84.53
2023-03-28T03:59:24.745Z,86.52
2023-03-28T04:03:29.043Z,81.68
2023-03-28T04:07:33.093Z,82.39
2023-03-28T04:11:36.506Z,83.34
2023-03-28T04:15:39.731Z,83.89
2023-03-28T04:19:44.054Z,84.99
2023-03-28T04:23:48.508Z,83.13
2023-03-28T04:27:54.805Z,83.29
2023-03-28T04:31:58.983Z,82.85
2023-03-28T04:36:02.992Z,81.86
2023-03-28T04:40:16.254Z,80.76
2023-03-28T04:44:20.043Z,81.29
2023-03-28T04:48:24.492Z,80.51
2023-03-28T04:52:28.652Z,78.77
2023-03-28T04:56:32.070Z,79.82
2023-03-28T05:00:42.959Z,81.24
2023-03-28T05:04:47.469Z,81.02
2023-03-28T05:08:50.952Z,81.37
2023-03-28T05:12:54.223Z,80.52
2023-03-28T05:16:58.694Z,79.70
2023-03-28T05:21:02.294Z,80.14
2023-03-28T05:25:06.622Z,81.10
2023-03-28T05:29:10.285Z,80.56
2023-03-28T05:33:13.758Z,81.30
2023-03-28T05:37:17.186Z,81.39
2023-03-28T05:41:20.846Z,79.50
2023-03-28T05:45:24.461Z,79.50
2023-03-28T05:49:27.748Z,80.77
2023-03-28T05:53:31.462Z,79.77
2023-03-28T05:57:35.127Z,77.46
2023-03-28T06:01:40.786Z,75.48
2023-03-28T06:05:46.025Z,76.14
2023-03-28T06:09:49.595Z,78.49
2023-03-28T06:13:53.184Z,78.72
2023-03-28T06:17:58.241Z,79.45
2023-03-28T06:22:03.194Z,79.05
2023-03-28T06:26:07.355Z,77.82
2023-03-28T06:30:11.408Z,76.42
2023-03-28T06:34:14.714Z,74.66
2023-03-28T06:38:18.246Z,74.22
2023-03-28T06:42:22.025Z,73.47
2023-03-28T06:46:26.273Z,71.31
2023-03-28T06:50:29.450Z,71.76
2023-03-28T06:54:33.377Z,73.17
2023-03-28T06:58:37.013Z,73.23
2023-03-28T07:02:42.297Z,72.77
2023-03-28T07:06:45.908Z,72.97
2023-03-28T07:10:49.700Z,74.17
2023-03-28T07:14:53.235Z,75.13
2023-03-28T07:18:56.405Z,73.59
2023-03-28T07:23:01.208Z,72.95
2023-03-28T07:31:12.569Z,72.66
2023-03-28T07:35:16.179Z,71.95
2023-03-28T07:39:20.194Z,70.48
2023-03-28T07:43:24.805Z,70.71
2023-03-28T07:47:28.533Z,70.64
2023-03-28T07:51:32.117Z,72.50
2023-03-28T07:55:48.334Z,73.34
2023-03-28T07:59:57.926Z,72.92
2023-03-28T08:04:02.123Z,72.46
2023-03-28T08:08:08.189Z,72.44
2023-03-28T08:12:11.565Z,73.15
2023-03-28T08:16:15.085Z,71.52
2023-03-28T08:20:19.997Z,69.08
2023-03-28T08:24:34.904Z,67.99
2023-03-28T08:28:39.510Z,69.06
2023-03-28T08:32:43.143Z,66.90
2023-03-28T08:36:47.306Z,65.40
2023-03-28T08:41:03.495Z,63.60
2023-03-28T08:45:44.937Z,64.21
2023-03-28T08:49:59.221Z,62.28
2023-03-28T08:54:08.385Z,56.75
2023-03-28T08:58:21.284Z,59.93
2023-03-28T09:02:27.711Z,61.46
2023-03-28T09:06:46.856Z,61.29
2023-03-28T09:11:07.904Z,62.35
2023-03-28T09:15:33.223Z,60.61
2023-03-28T09:20:11.489Z,61.07
2023-03-28T09:24:22.854Z,58.92
2023-03-28T09:28:46.249Z,58.00
2023-03-28T09:32:53.180Z,59.23
2023-03-28T09:37:03.097Z,60.37
2023-03-28T09:41:29.803Z,59.72
2023-03-28T09:45:36.394Z,61.91
2023-03-28T09:49:39.698Z,60.96
2023-03-28T09:53:43.282Z,61.17
2023-03-28T09:58:01.804Z,64.23
2023-03-28T10:02:05.527Z,64.00
2023-03-28T10:06:24.723Z,65.65
2023-03-28T10:10:28.890Z,62.36
2023-03-28T10:14:34.950Z,61.99
2023-03-28T10:18:40.747Z,63.51
2023-03-28T10:22:47.691Z,72.33
2023-03-28T10:26:50.866Z,71.67
2023-03-28T10:30:58.020Z,69.09
2023-03-28T10:35:06.876Z,67.59
2023-03-28T10:39:25.405Z,67.45
2023-03-28T10:43:35.226Z,65.32
2023-03-28T10:47:41.772Z,68.62
2023-03-28T10:51:46.069Z,71.96
2023-03-28T10:56:01.563Z,73.23
2023-03-28T11:00:29.757Z,73.09
2023-03-28T11:04:54.163Z,69.05
2023-03-28T11:09:09.820Z,65.80
2023-03-28T11:13:22.509Z,63.18
2023-03-28T11:17:52.930Z,67.87
2023-03-28T11:22:31.548Z,67.18
2023-03-28T11:26:49.744Z,64.26
2023-03-28T11:30:58.222Z,62.96
2023-03-28T11:35:12.850Z,61.61
2023-03-28T11:39:32.714Z,60.86
2023-03-28T11:43:53.328Z,61.63
2023-03-28T11:48:20.668Z,60.92
2023-03-28T11:52:31.554Z,61.51
2023-03-28T11:56:34.728Z,63.29
2023-03-28T12:00:47.433Z,64.01
2023-03-28T12:04:58.965Z,60.60
2023-03-28T12:09:16.448Z,61.53
2023-03-28T12:13:46.678Z,70.42
2023-03-28T12:18:02.318Z,67.26
2023-03-28T12:22:26.898Z,66.43
2023-03-28T12:26:57.192Z,66.15
2023-03-28T12:31:13.429Z,65.03
2023-03-28T12:35:40.778Z,65.15
2023-03-28T12:40:08.433Z,87.17
2023-03-28T12:44:25.360Z,92.50
2023-03-28T12:48:35.641Z,95.96
2023-03-28T12:52:42.176Z,93.35
2023-03-28T12:56:47.519Z,88.97
2023-03-28T13:01:07.829Z,88.50
2023-03-28T13:06:01.034Z,87.37
2023-03-28T13:10:20.455Z,88.06
2023-03-28T13:14:37.883Z,85.79
2023-03-28T13:19:11.199Z,87.46
2023-03-28T13:23:17.977Z,94.47
2023-03-28T13:27:33.710Z,99.28
2023-03-28T13:31:52.870Z,100.00
2023-03-28T13:35:59.953Z,100.00
2023-03-28T13:40:07.487Z,100.00
2023-03-28T13:48:47.466Z,94.05
2023-03-28T14:06:41.140Z,77.77
2023-03-28T14:10:46.491Z,75.06
2023-03-28T14:15:00.920Z,71.83
2023-03-28T14:19:06.006Z,70.15
2023-03-28T14:23:32.615Z,68.01
2023-03-28T14:32:32.391Z,69.85
2023-03-28T14:36:58.730Z,71.73
2023-03-28T14:50:42.074Z,74.01
2023-03-28T14:54:48.234Z,74.41
2023-03-28T14:59:01.118Z,73.58
2023-03-28T15:03:09.571Z,69.93
2023-03-28T15:07:28.309Z,68.95
2023-03-28T15:11:35.955Z,69.40
2023-03-28T15:15:46.244Z,69.39
2023-03-28T15:19:55.665Z,67.87
2023-03-28T15:24:02.888Z,66.59
2023-03-28T15:28:10.840Z,65.53
2023-03-28T15:32:18.098Z,67.20
2023-03-28T15:36:30.413Z,63.55
2023-03-28T15:40:43.103Z,64.55
2023-03-28T15:45:12.116Z,64.00
2023-03-28T15:49:15.691Z,64.02
2023-03-28T15:53:20.913Z,62.28
2023-03-28T15:57:27.603Z,61.63
2023-03-28T16:01:33.180Z,63.17
2023-03-28T16:05:37.765Z,59.76
2023-03-28T16:09:43.975Z,56.59
2023-03-28T16:13:48.098Z,56.30
2023-03-28T16:17:55.713Z,54.94
2023-03-28T16:22:01.080Z,54.72
2023-03-28T16:26:07.068Z,55.20
2023-03-28T16:30:27.237Z,55.08
2023-03-28T16:34:30.922Z,58.82
2023-03-28T16:38:34.099Z,59.22
2023-03-28T16:42:37.720Z,58.92
2023-03-28T16:46:41.786Z,59.37
2023-03-28T16:50:56.850Z,59.25
2023-03-28T16:55:00.734Z,58.65
2023-03-28T16:59:06.053Z,59.20
2023-03-28T17:03:09.883Z,58.63
2023-03-28T17:07:13.941Z,57.96
2023-03-28T17:11:17.348Z,55.70
2023-03-28T17:15:20.784Z,54.66
2023-03-28T17:19:24.497Z,54.97
2023-03-28T17:23:28.435Z,56.21
2023-03-28T17:27:31.634Z,57.75
2023-03-28T17:31:34.821Z,58.48
2023-03-28T17:35:38.245Z,58.63
2023-03-28T17:39:42.475Z,59.38
2023-03-28T17:43:45.970Z,60.10
2023-03-28T17:47:49.534Z,60.70
2023-03-28T17:51:53.025Z,60.06
2023-03-28T17:55:57.440Z,59.64
2023-03-28T18:00:02.310Z,60.28
2023-03-28T18:04:05.604Z,62.19
2023-03-28T18:08:09.590Z,64.02
2023-03-28T18:12:14.281Z,65.88
2023-03-28T18:16:18.601Z,67.33
2023-03-28T18:20:24.986Z,66.17
2023-03-28T18:24:29.022Z,67.31
2023-03-28T18:28:33.121Z,66.04
2023-03-28T18:32:37.390Z,66.76
2023-03-28T18:36:42.471Z,68.77
2023-03-28T18:40:51.503Z,70.93
2023-03-28T18:44:57.238Z,71.44
2023-03-28T18:49:01.519Z,71.86
2023-03-28T18:53:05.530Z,73.32
2023-03-28T18:57:10.912Z,75.21
2023-03-28T19:01:15.758Z,75.77
2023-03-28T19:05:19.758Z,76.79
2023-03-28T19:09:23.617Z,77.59
2023-03-28T19:13:29.210Z,77.89
2023-03-28T19:17:36.635Z,78.23
2023-03-28T19:21:40.628Z,78.25
2023-03-28T19:25:44.941Z,77.96
2023-03-28T19:29:48.487Z,77.78
2023-03-28T19:33:54.443Z,77.33
2023-03-28T19:38:00.013Z,77.10
2023-03-28T19:42:03.473Z,76.60
2023-03-28T19:46:11.334Z,76.46
2023-03-28T19:50:15.010Z,76.82
2023-03-28T19:54:18.762Z,77.05
2023-03-28T19:58:23.291Z,77.88
2023-03-28T20:02:30.060Z,78.06
2023-03-28T20:06:33.538Z,77.71
2023-03-28T20:10:46.016Z,77.34
2023-03-28T20:14:50.589Z,76.90
2023-03-28T20:18:56.035Z,76.88
2023-03-28T20:23:00.062Z,76.94
2023-03-28T20:27:04.064Z,77.09
2023-03-28T20:31:11.719Z,77.10
2023-03-28T20:35:15.334Z,76.95
2023-03-28T20:39:19.735Z,76.73
2023-03-28T20:43:29.420Z,76.24
2023-03-28T20:47:38.589Z,76.14
2023-03-28T20:51:44.152Z,77.11
2023-03-28T20:55:48.683Z,78.18
2023-03-28T20:59:58.425Z,77.60
2023-03-28T21:26:50.526Z,79.61
2023-03-28T21:31:26.296Z,80.35
2023-03-28T21:53:52.625Z,78.53
2023-03-28T22:21:46.820Z,77.23
2023-03-28T23:08:20.850Z,78.56
2023-03-28T23:13:09.674Z,78.42
2023-03-28T23:27:10.106Z,78.10
